CST,Max TemperatureF,Mean TemperatureF,Min TemperatureF,Max Dew PointF,MeanDew PointF,Min DewpointF,Max Humidity, Mean Humidity, Min Humidity, Max Sea Level PressureIn, Mean Sea Level PressureIn, Min Sea Level PressureIn, Max VisibilityMiles, Mean VisibilityMiles, Min VisibilityMiles, Max Wind SpeedMPH, Mean Wind SpeedMPH, Max Gust SpeedMPH,PrecipitationIn, CloudCover, Events, WindDirDegrees
2013-2-1,3,-6,-16,-2,-14,-22,85,69,51,30.27,30.18,30.04,10,8,2,12,7,,0.00,3,Snow,232
2013-2-2,8,2,-4,5,-3,-8,85,75,56,30.15,30.06,29.95,10,8,2,8,4,,0.00,5,Snow,71
2013-2-3,14,8,3,7,3,0,85,73,57,30.04,29.98,29.94,10,8,2,16,6,24,0.00,6,Snow,304
2013-2-4,14,7,0,10,0,-6,92,70,53,30.05,29.95,29.76,10,9,3,12,4,,0.01,5,Snow,51
2013-2-5,26,13,0,23,14,-4,100,82,59,30.07,29.83,29.63,10,9,3,17,10,23,0.00,4,Snow,277
2013-2-6,26,11,-4,23,10,-8,93,87,79,30.09,30.03,29.95,10,7,0,13,3,18,0.00,6,Snow,110
2013-2-7,28,26,24,25,22,18,100,86,69,30.24,30.09,29.99,10,7,2,17,10,21,0.00,8,,31
2013-2-8,24,12,0,18,9,-4,100,77,54,30.38,30.31,30.24,10,9,0,14,6,,0.00,2,Fog-Snow,102
2013-2-9,30,24,19,28,24,14,100,89,80,30.24,30.07,29.95,10,8,4,17,10,23,0.00,8,,161
2013-2-10,33,30,26,34,29,25,100,96,86,29.95,29.54,29.25,10,5,0,21,10,28,0.18,8,Rain-Snow,90
2013-2-11,32,26,19,32,22,14,100,85,74,30.00,29.70,29.27,10,8,2,24,15,31,0.00,8,Snow,297
2013-2-12,32,21,10,23,17,9,100,82,64,30.01,29.90,29.78,10,10,7,14,8,17,0.01,2,Snow,220
2013-2-13,33,25,17,32,24,18,100,90,69,29.77,29.67,29.55,10,7,1,9,5,,0.02,7,Snow,201
2013-2-14,32,22,12,32,18,0,100,78,46,30.14,29.86,29.57,10,9,1,18,9,23,0.06,5,Snow,331
2013-2-15,15,9,3,3,0,-4,85,69,53,30.26,30.22,30.14,10,10,10,16,8,18,0.00,3,,295
2013-2-16,14,0,-13,3,-5,-17,92,77,57,30.21,30.16,30.11,10,10,7,8,3,,0.01,1,,158
2013-2-17,28,8,-11,19,8,-15,92,71,59,30.11,29.92,29.67,10,10,2,17,7,22,0.00,2,,139
2013-2-18,33,22,12,30,20,7,93,82,73,29.73,29.59,29.51,10,9,4,23,11,30,0.01,6,Snow,256
2013-2-19,12,6,0,5,-4,-9,79,66,52,30.30,30.02,29.74,10,8,4,23,17,34,0.00,3,Snow,314
2013-2-20,14,2,-11,3,-4,-15,85,73,57,30.43,30.39,30.30,10,10,10,9,5,,0.00,1,,332
2013-2-21,21,8,-5,12,5,-9,92,72,58,30.44,30.30,30.10,10,10,10,10,5,,0.00,1,,59
2013-2-22,26,22,17,25,21,12,100,91,68,30.09,29.90,29.83,10,5,1,13,6,,0.04,8,Rain-Snow,11
2013-2-23,30,22,15,27,22,16,100,90,69,29.94,29.85,29.81,10,7,2,8,5,,0.01,8,Snow,248
2013-2-24,32,24,12,21,20,12,100,84,64,30.09,30.04,29.94,10,8,4,6,2,,0.01,4,,195
2013-2-25,32,19,5,28,21,3,100,95,85,30.10,30.07,30.03,10,4,0,5,0,,0.00,8,Fog,100
2013-2-26,37,21,5,28,21,3,100,85,65,30.06,29.94,29.85,10,7,0,15,5,16,0.00,4,Fog,27
2013-2-27,33,30,26,27,25,21,86,78,69,29.99,29.89,29.84,10,10,10,20,12,26,0.00,7,,12
2013-2-28,30,26,23,23,20,14,80,73,64,30.22,30.12,30.00,10,10,10,18,12,25,0.00,8,,23